createdAt,value
2022-10-08T00:01:15.191Z,9.70
2022-10-08T00:03:45.047Z,9.70
2022-10-08T00:06:24.255Z,9.70
2022-10-08T00:08:53.725Z,9.70
2022-10-08T00:11:36.538Z,9.80
2022-10-08T00:14:04.038Z,9.70
2022-10-08T00:16:39.124Z,9.80
2022-10-08T00:19:09.201Z,9.80
2022-10-08T00:21:38.952Z,9.90
2022-10-08T00:24:07.970Z,9.90
2022-10-08T00:26:41.151Z,9.80
2022-10-08T00:29:14.144Z,9.80
2022-10-08T00:31:44.011Z,9.80
2022-10-08T00:34:20.805Z,9.90
2022-10-08T00:36:51.895Z,9.80
2022-10-08T00:39:20.794Z,9.80
2022-10-08T00:41:51.622Z,9.90
2022-10-08T00:44:52.496Z,9.90
2022-10-08T00:47:32.239Z,9.80
2022-10-08T00:50:19.407Z,9.70
2022-10-08T00:52:57.082Z,9.80
2022-10-08T00:55:28.072Z,9.70
2022-10-08T00:58:02.206Z,9.70
2022-10-08T01:00:30.186Z,9.70
2022-10-08T01:02:57.681Z,9.60
2022-10-08T01:06:01.348Z,9.60
2022-10-08T01:08:48.517Z,9.60
2022-10-08T01:11:38.946Z,9.60
2022-10-08T01:14:16.956Z,9.60
2022-10-08T01:16:54.218Z,9.60
2022-10-08T01:19:43.820Z,9.60
2022-10-08T01:22:29.784Z,9.60
2022-10-08T01:25:32.104Z,9.60
2022-10-08T01:28:10.038Z,9.60
2022-10-08T01:30:45.709Z,9.60
2022-10-08T01:33:23.261Z,9.60
2022-10-08T01:35:56.275Z,9.60
2022-10-08T01:38:26.146Z,9.70
2022-10-08T01:40:59.021Z,9.70
2022-10-08T01:43:30.334Z,9.80
2022-10-08T01:46:01.981Z,9.80
2022-10-08T01:48:34.094Z,9.70
2022-10-08T01:51:01.948Z,9.70
2022-10-08T01:53:34.505Z,9.70
2022-10-08T01:56:04.246Z,9.80
2022-10-08T01:58:56.005Z,9.80
2022-10-08T02:01:52.214Z,9.90
2022-10-08T02:04:35.830Z,9.80
2022-10-08T02:07:11.202Z,9.80
2022-10-08T02:09:41.301Z,9.80
2022-10-08T02:12:09.674Z,9.90
2022-10-08T02:14:40.417Z,9.80
2022-10-08T02:17:07.242Z,9.80
2022-10-08T02:20:03.722Z,9.80
2022-10-08T02:22:36.254Z,9.90
2022-10-08T02:25:19.025Z,9.90
2022-10-08T02:28:16.010Z,9.90
2022-10-08T02:31:08.274Z,9.90
2022-10-08T02:33:57.745Z,9.90
2022-10-08T02:36:31.260Z,10.00
2022-10-08T02:39:03.957Z,10.00
2022-10-08T02:41:42.054Z,9.90
2022-10-08T02:44:15.672Z,9.90
2022-10-08T02:46:46.841Z,10.00
2022-10-08T02:49:18.298Z,10.00
2022-10-08T02:51:49.426Z,10.00
2022-10-08T02:54:19.565Z,10.00
2022-10-08T02:56:58.875Z,10.00
2022-10-08T02:59:26.687Z,10.10
2022-10-08T03:02:05.196Z,10.10
2022-10-08T03:04:36.825Z,10.20
2022-10-08T03:07:04.249Z,10.20
2022-10-08T03:09:39.005Z,10.30
2022-10-08T03:12:06.946Z,10.30
2022-10-08T03:14:39.371Z,10.30
2022-10-08T03:17:08.720Z,10.30
2022-10-08T03:19:35.712Z,10.30
2022-10-08T03:22:03.160Z,10.30
2022-10-08T03:24:30.122Z,10.40
2022-10-08T03:26:57.070Z,10.30
2022-10-08T03:29:23.949Z,10.30
2022-10-08T03:31:51.194Z,10.20
2022-10-08T03:34:18.109Z,10.20
2022-10-08T03:36:45.039Z,10.10
2022-10-08T03:39:12.454Z,10.10
2022-10-08T03:41:39.434Z,10.00
2022-10-08T03:44:10.761Z,10.00
2022-10-08T03:46:37.984Z,10.00
2022-10-08T03:49:04.936Z,10.10
2022-10-08T03:51:31.859Z,10.20
2022-10-08T03:53:58.852Z,10.30
2022-10-08T03:56:25.846Z,10.40
2022-10-08T03:59:04.082Z,10.50
2022-10-08T04:01:31.055Z,10.60
2022-10-08T04:03:58.040Z,10.70
2022-10-08T04:06:24.959Z,10.70
2022-10-08T04:08:51.935Z,10.80
2022-10-08T04:11:19.706Z,10.90
2022-10-08T04:13:46.712Z,10.90
2022-10-08T04:16:18.628Z,11.00
2022-10-08T04:18:46.756Z,11.00
2022-10-08T04:21:16.524Z,11.00
2022-10-08T04:23:44.217Z,11.10
2022-10-08T04:26:13.294Z,11.20
2022-10-08T04:28:42.268Z,11.20
2022-10-08T04:31:13.726Z,11.20
2022-10-08T04:33:40.817Z,11.20
2022-10-08T04:36:19.302Z,11.30
2022-10-08T04:38:46.554Z,11.30
2022-10-08T04:41:15.934Z,11.30
2022-10-08T04:43:44.239Z,11.30
2022-10-08T04:46:13.849Z,11.30
2022-10-08T04:48:48.248Z,11.30
2022-10-08T04:51:15.839Z,11.30
2022-10-08T04:53:42.838Z,11.40
2022-10-08T04:56:24.670Z,11.40
2022-10-08T04:58:52.004Z,11.30
2022-10-08T05:01:20.791Z,11.30
2022-10-08T05:03:49.957Z,11.30
2022-10-08T05:06:19.210Z,11.20
2022-10-08T05:08:46.340Z,11.20
2022-10-08T05:11:15.020Z,11.10
2022-10-08T05:13:42.705Z,11.00
2022-10-08T05:16:12.514Z,10.90
2022-10-08T05:18:41.181Z,10.90
2022-10-08T05:21:12.305Z,10.90
2022-10-08T05:23:39.448Z,10.90
2022-10-08T05:26:15.940Z,10.80
2022-10-08T05:28:44.409Z,10.90
2022-10-08T05:31:11.628Z,10.90
2022-10-08T05:33:39.318Z,10.90
2022-10-08T05:36:08.923Z,10.90
2022-10-08T05:38:36.147Z,10.90
2022-10-08T05:41:11.406Z,10.90
2022-10-08T05:43:38.891Z,10.90
2022-10-08T05:46:06.360Z,10.90
2022-10-08T05:48:33.269Z,10.80
2022-10-08T05:51:08.774Z,10.80
2022-10-08T05:53:37.627Z,10.80
2022-10-08T05:56:06.907Z,10.80
2022-10-08T05:58:35.342Z,10.80
2022-10-08T06:01:05.238Z,10.70
2022-10-08T06:03:32.246Z,10.80
2022-10-08T06:06:07.690Z,10.80
2022-10-08T06:08:35.637Z,10.80
2022-10-08T06:11:03.657Z,10.80
2022-10-08T06:13:30.622Z,10.80
2022-10-08T06:15:59.343Z,10.80
2022-10-08T06:18:27.856Z,10.80
2022-10-08T06:20:54.750Z,10.70
2022-10-08T06:23:23.982Z,10.80
2022-10-08T06:25:50.887Z,10.80
2022-10-08T06:28:17.914Z,10.80
2022-10-08T06:30:45.000Z,10.80
2022-10-08T06:33:11.899Z,10.80
2022-10-08T06:35:38.999Z,10.80
2022-10-08T06:38:06.022Z,10.70
2022-10-08T06:40:39.108Z,10.70
2022-10-08T06:43:17.311Z,10.80
2022-10-08T06:45:45.681Z,10.80
2022-10-08T06:48:13.589Z,10.90
2022-10-08T06:50:41.135Z,10.90
2022-10-08T06:53:09.855Z,10.90
2022-10-08T06:55:37.478Z,11.00
2022-10-08T06:58:05.667Z,11.00
2022-10-08T07:00:32.727Z,11.10
2022-10-08T07:02:59.639Z,11.10
2022-10-08T07:05:26.578Z,11.20
2022-10-08T07:07:53.466Z,11.20
2022-10-08T07:10:20.377Z,11.20
2022-10-08T07:12:47.422Z,11.30
2022-10-08T07:15:14.476Z,11.30
2022-10-08T07:17:41.392Z,11.30
2022-10-08T07:20:08.640Z,11.30
2022-10-08T07:22:35.517Z,11.30
2022-10-08T07:25:02.444Z,11.30
2022-10-08T07:27:29.345Z,11.40
2022-10-08T07:29:56.226Z,11.40
2022-10-08T07:32:23.239Z,11.50
2022-10-08T07:34:50.186Z,11.40
2022-10-08T07:37:17.209Z,11.50
2022-10-08T07:39:44.886Z,11.50
2022-10-08T07:42:11.776Z,11.50
2022-10-08T07:44:38.678Z,11.60
2022-10-08T07:47:05.913Z,11.50
2022-10-08T07:49:32.802Z,11.60
2022-10-08T07:51:59.746Z,11.70
2022-10-08T07:54:26.617Z,11.80
2022-10-08T07:56:54.026Z,11.90
2022-10-08T07:59:20.900Z,11.90
2022-10-08T08:01:47.973Z,12.00
2022-10-08T08:04:15.051Z,12.00
2022-10-08T08:06:44.891Z,12.10
2022-10-08T08:09:12.004Z,12.10
2022-10-08T08:11:40.305Z,12.30
2022-10-08T08:14:08.121Z,12.30
2022-10-08T08:16:35.693Z,12.40
2022-10-08T08:19:03.992Z,12.40
2022-10-08T08:21:36.073Z,12.50
2022-10-08T08:24:09.847Z,12.60
2022-10-08T08:26:38.945Z,12.60
2022-10-08T08:29:17.918Z,12.50
2022-10-08T08:31:47.596Z,12.60
2022-10-08T08:34:20.231Z,12.70
2022-10-08T08:36:49.306Z,12.60
2022-10-08T08:39:21.807Z,12.70
2022-10-08T08:42:13.168Z,12.60
2022-10-08T08:44:42.348Z,12.60
2022-10-08T08:47:38.695Z,12.60
2022-10-08T08:50:19.326Z,12.70
2022-10-08T08:52:46.596Z,12.90
2022-10-08T08:55:20.100Z,12.80
2022-10-08T08:58:00.838Z,12.80
2022-10-08T09:00:41.498Z,12.70
2022-10-08T09:03:20.172Z,12.60
2022-10-08T09:05:52.088Z,12.60
2022-10-08T09:08:45.334Z,12.60
2022-10-08T09:11:17.658Z,12.60
2022-10-08T09:13:49.018Z,12.70
2022-10-08T09:16:17.338Z,12.90
2022-10-08T09:18:51.847Z,13.10
2022-10-08T09:21:19.858Z,13.20
2022-10-08T09:23:47.726Z,13.50
2022-10-08T09:26:16.485Z,13.60
2022-10-08T09:28:49.391Z,13.70
2022-10-08T09:31:25.386Z,13.90
2022-10-08T09:34:11.129Z,14.10
2022-10-08T09:36:48.233Z,14.20
2022-10-08T09:39:24.670Z,13.80
2022-10-08T09:42:14.710Z,13.60
2022-10-08T09:44:48.485Z,13.70
2022-10-08T09:47:18.499Z,14.20
2022-10-08T09:49:50.058Z,14.40
2022-10-08T09:52:20.192Z,14.50
2022-10-08T09:54:51.201Z,14.90
2022-10-08T09:57:20.922Z,15.30
2022-10-08T09:59:56.451Z,15.50
2022-10-08T10:02:36.402Z,15.60
2022-10-08T10:05:07.871Z,15.60
2022-10-08T10:07:45.944Z,16.20
2022-10-08T10:10:45.289Z,16.30
2022-10-08T10:13:35.522Z,16.20
2022-10-08T10:16:07.902Z,15.70
2022-10-08T10:18:55.363Z,15.50
2022-10-08T10:21:44.285Z,15.00
2022-10-08T10:24:26.430Z,14.80
2022-10-08T10:26:56.849Z,14.40
2022-10-08T10:29:28.842Z,14.40
2022-10-08T10:32:20.963Z,14.90
2022-10-08T10:35:02.520Z,15.10
2022-10-08T10:37:50.792Z,15.00
2022-10-08T10:40:33.747Z,15.00
2022-10-08T10:43:28.196Z,14.70
2022-10-08T10:46:36.736Z,14.50
2022-10-08T10:49:21.348Z,14.40
2022-10-08T10:52:19.013Z,14.90
2022-10-08T10:55:07.088Z,15.60
2022-10-08T10:57:58.193Z,16.00
2022-10-08T11:00:56.002Z,16.20
2022-10-08T11:03:54.185Z,16.80
2022-10-08T11:06:39.177Z,16.90
2022-10-08T11:09:06.005Z,16.70
2022-10-08T11:11:43.301Z,16.60
2022-10-08T11:14:54.272Z,16.00
2022-10-08T11:17:24.006Z,15.40
2022-10-08T11:20:25.732Z,14.80
2022-10-08T11:29:19.161Z,14.20
2022-10-08T11:31:49.977Z,14.60
2022-10-08T11:34:37.378Z,15.40
2022-10-08T11:37:07.074Z,16.00
2022-10-08T11:39:42.328Z,16.70
2022-10-08T11:42:24.559Z,16.90
2022-10-08T11:44:51.447Z,16.40
2022-10-08T11:47:46.968Z,16.70
2022-10-08T11:50:37.493Z,16.30
2022-10-08T11:53:10.473Z,15.70
2022-10-08T11:55:38.326Z,15.10
2022-10-08T11:58:15.513Z,14.80
2022-10-08T12:00:45.189Z,15.00
2022-10-08T12:03:31.968Z,15.30
2022-10-08T12:06:13.062Z,15.70
2022-10-08T12:09:00.127Z,16.10
2022-10-08T12:11:30.091Z,16.70
2022-10-08T12:14:12.487Z,16.80
2022-10-08T12:16:48.413Z,16.40
2022-10-08T12:19:36.155Z,16.50
2022-10-08T12:22:15.148Z,16.80
2022-10-08T12:24:49.727Z,17.40
2022-10-08T12:27:17.474Z,17.30
2022-10-08T12:29:54.663Z,17.20
2022-10-08T12:32:25.098Z,17.30
2022-10-08T12:34:53.261Z,16.80
2022-10-08T12:37:38.788Z,16.70
2022-10-08T12:40:23.745Z,16.50
2022-10-08T12:43:02.483Z,16.60
2022-10-08T12:45:37.708Z,17.00
2022-10-08T12:48:17.962Z,17.20
2022-10-08T12:50:52.913Z,17.60
2022-10-08T12:53:20.130Z,17.50
2022-10-08T12:55:51.653Z,17.60
2022-10-08T12:58:25.733Z,17.40
2022-10-08T13:01:04.481Z,17.10
2022-10-08T13:03:31.481Z,17.50
2022-10-08T13:06:13.603Z,17.40
2022-10-08T13:08:42.668Z,17.20
2022-10-08T13:11:10.621Z,17.20
2022-10-08T13:13:40.516Z,17.60
2022-10-08T13:16:12.419Z,18.20
2022-10-08T13:18:43.296Z,18.40
2022-10-08T13:21:32.351Z,18.50
2022-10-08T13:24:25.340Z,17.80
2022-10-08T13:26:54.351Z,18.00
2022-10-08T13:29:24.005Z,18.20
2022-10-08T13:32:05.027Z,18.30
2022-10-08T13:34:35.053Z,18.50
2022-10-08T13:37:05.818Z,19.00
2022-10-08T13:39:38.526Z,18.30
2022-10-08T13:42:14.482Z,18.60
2022-10-08T13:44:45.530Z,19.10
2022-10-08T13:47:17.777Z,19.20
2022-10-08T13:49:45.237Z,19.30
2022-10-08T13:52:20.633Z,18.40
2022-10-08T13:54:49.705Z,16.80
2022-10-08T13:57:16.656Z,15.40
2022-10-08T13:59:43.566Z,15.60
2022-10-08T14:02:14.585Z,16.10
2022-10-08T14:04:42.790Z,16.40
2022-10-08T14:07:30.077Z,17.00
2022-10-08T14:10:01.416Z,17.30
2022-10-08T14:12:32.669Z,16.70
2022-10-08T14:15:00.814Z,15.90
2022-10-08T14:17:27.721Z,15.30
2022-10-08T14:19:55.588Z,15.00
2022-10-08T14:22:22.894Z,14.70
2022-10-08T14:24:49.886Z,14.60
2022-10-08T14:27:16.829Z,14.40
2022-10-08T14:29:43.851Z,14.10
2022-10-08T14:32:11.626Z,13.80
2022-10-08T14:34:39.121Z,13.40
2022-10-08T14:37:06.895Z,13.30
2022-10-08T14:39:33.971Z,13.10
2022-10-08T14:42:00.863Z,13.50
2022-10-08T14:44:27.802Z,14.20
2022-10-08T14:46:54.864Z,14.90
2022-10-08T14:49:22.290Z,15.30
2022-10-08T14:51:49.212Z,15.90
2022-10-08T14:54:17.123Z,16.00
2022-10-08T14:56:44.235Z,16.10
2022-10-08T14:59:11.837Z,16.20
2022-10-08T15:01:39.474Z,16.20
2022-10-08T15:04:07.381Z,16.10
2022-10-08T15:06:34.446Z,16.10
2022-10-08T15:09:01.446Z,16.20
2022-10-08T15:11:28.447Z,16.20
2022-10-08T15:13:55.600Z,16.30
2022-10-08T15:16:23.020Z,16.50
2022-10-08T15:18:49.994Z,16.30
2022-10-08T15:21:18.259Z,16.20
2022-10-08T15:23:45.449Z,15.60
2022-10-08T15:26:14.904Z,15.00
2022-10-08T15:28:43.228Z,15.00
2022-10-08T15:31:19.136Z,14.40
2022-10-08T15:33:48.967Z,14.00
2022-10-08T15:36:27.425Z,14.00
2022-10-08T15:39:15.205Z,14.00
2022-10-08T15:41:48.403Z,13.90
2022-10-08T15:44:22.152Z,13.90
2022-10-08T15:46:51.437Z,14.00
2022-10-08T15:49:20.181Z,14.10
2022-10-08T15:51:47.145Z,14.10
2022-10-08T15:54:14.480Z,14.20
2022-10-08T15:56:41.436Z,14.10
2022-10-08T15:59:08.338Z,14.00
2022-10-08T16:01:35.438Z,13.90
2022-10-08T16:04:02.405Z,13.90
2022-10-08T16:06:34.878Z,13.80
2022-10-08T16:09:03.560Z,13.70
2022-10-08T16:11:35.098Z,13.50
2022-10-08T16:14:12.051Z,13.40
2022-10-08T16:16:39.893Z,13.20
2022-10-08T16:19:12.990Z,13.10
2022-10-08T16:21:40.304Z,13.00
2022-10-08T16:24:07.221Z,12.90
2022-10-08T16:26:35.571Z,12.80
2022-10-08T16:29:05.690Z,12.70
2022-10-08T16:31:34.480Z,12.60
2022-10-08T16:34:04.488Z,12.50
2022-10-08T16:36:33.959Z,12.40
2022-10-08T16:39:01.369Z,12.30
2022-10-08T16:41:30.469Z,12.20
2022-10-08T16:43:59.461Z,12.10
2022-10-08T16:46:31.686Z,12.10
2022-10-08T16:49:01.753Z,12.00
2022-10-08T16:51:34.879Z,11.90
2022-10-08T16:54:03.196Z,11.90
2022-10-08T16:56:33.137Z,11.80
2022-10-08T16:59:03.190Z,11.80
2022-10-08T17:01:30.859Z,11.90
2022-10-08T17:03:58.381Z,11.80
2022-10-08T17:06:27.717Z,11.80
2022-10-08T17:08:54.793Z,11.70
2022-10-08T17:11:22.371Z,11.60
2022-10-08T17:13:52.476Z,11.60
2022-10-08T17:16:21.341Z,11.50
2022-10-08T17:18:51.431Z,11.50
2022-10-08T17:21:18.776Z,11.50
2022-10-08T17:23:45.990Z,11.50
2022-10-08T17:26:18.469Z,11.50
2022-10-08T17:28:47.550Z,11.50
2022-10-08T17:31:17.864Z,11.40
2022-10-08T17:33:45.086Z,11.40
2022-10-08T17:36:17.857Z,11.30
2022-10-08T17:38:46.501Z,11.30
2022-10-08T17:41:26.074Z,11.40
2022-10-08T17:43:55.860Z,11.40
2022-10-08T17:46:28.404Z,11.40
2022-10-08T17:48:55.679Z,11.30
2022-10-08T17:51:28.035Z,11.20
2022-10-08T17:53:58.921Z,11.10
2022-10-08T17:56:26.203Z,11.00
2022-10-08T17:58:53.452Z,10.90
2022-10-08T18:01:23.042Z,10.90
2022-10-08T18:03:56.453Z,11.00
2022-10-08T18:06:25.710Z,11.00
2022-10-08T18:09:05.339Z,10.90
2022-10-08T18:11:34.895Z,10.90
2022-10-08T18:14:02.873Z,10.80
2022-10-08T18:16:31.271Z,10.70
2022-10-08T18:18:58.252Z,10.60
2022-10-08T18:21:26.110Z,10.60
2022-10-08T18:23:52.983Z,10.60
2022-10-08T18:26:22.863Z,10.50
2022-10-08T18:29:00.429Z,10.50
2022-10-08T18:31:31.657Z,10.40
2022-10-08T18:34:01.263Z,10.40
2022-10-08T18:36:30.590Z,10.30
2022-10-08T18:38:59.939Z,10.30
2022-10-08T18:41:36.822Z,10.30
2022-10-08T18:44:05.963Z,10.40
2022-10-08T18:46:35.017Z,10.60
2022-10-08T18:49:02.595Z,10.50
2022-10-08T18:51:30.214Z,10.50
2022-10-08T18:53:58.794Z,10.40
2022-10-08T18:56:39.333Z,10.30
2022-10-08T18:59:12.231Z,10.20
2022-10-08T19:01:41.791Z,10.10
2022-10-08T19:04:15.718Z,10.10
2022-10-08T19:06:43.902Z,10.00
2022-10-08T19:09:11.046Z,9.90
2022-10-08T19:11:47.929Z,10.00
2022-10-08T19:14:17.197Z,9.90
2022-10-08T19:16:44.672Z,10.00
2022-10-08T19:19:16.030Z,9.90
2022-10-08T19:21:43.563Z,9.90
2022-10-08T19:24:14.275Z,9.80
2022-10-08T19:26:41.603Z,9.70
2022-10-08T19:29:15.299Z,9.70
2022-10-08T19:31:42.674Z,9.70
2022-10-08T19:34:13.806Z,9.70
2022-10-08T19:36:41.184Z,9.50
2022-10-08T19:39:12.030Z,9.40
2022-10-08T19:41:39.642Z,9.40
2022-10-08T19:44:06.703Z,9.50
2022-10-08T19:46:33.665Z,9.50
2022-10-08T19:49:04.039Z,9.50
2022-10-08T19:51:32.433Z,9.30
2022-10-08T19:54:00.609Z,9.10
2022-10-08T19:56:28.917Z,9.10
2022-10-08T19:58:56.149Z,9.10
2022-10-08T20:01:35.325Z,9.10
2022-10-08T20:04:04.328Z,9.10
2022-10-08T20:06:34.017Z,9.10
2022-10-08T20:09:02.572Z,9.10
2022-10-08T20:11:30.876Z,9.00
2022-10-08T20:13:58.027Z,9.00
2022-10-08T20:16:30.406Z,8.90
2022-10-08T20:19:02.938Z,8.90
2022-10-08T20:21:32.083Z,8.70
2022-10-08T20:23:59.192Z,8.50
2022-10-08T20:26:31.990Z,8.30
2022-10-08T20:29:07.371Z,8.40
2022-10-08T20:31:39.676Z,8.50
2022-10-08T20:34:17.418Z,8.30
2022-10-08T20:36:45.770Z,8.30
2022-10-08T20:39:15.032Z,8.40
2022-10-08T20:41:42.241Z,8.60
2022-10-08T20:44:09.508Z,8.70
2022-10-08T20:46:37.873Z,8.50
2022-10-08T20:49:05.412Z,8.50
2022-10-08T20:51:33.145Z,8.60
2022-10-08T20:54:02.780Z,8.60
2022-10-08T20:56:33.648Z,8.60
2022-10-08T20:59:03.394Z,8.50
2022-10-08T21:01:33.007Z,8.70
2022-10-08T21:04:00.711Z,8.80
2022-10-08T21:06:36.581Z,8.80
2022-10-08T21:09:03.942Z,8.90
2022-10-08T21:11:31.479Z,8.80
2022-10-08T21:14:01.460Z,8.80
2022-10-08T21:16:31.732Z,8.90
2022-10-08T21:19:01.566Z,8.90
2022-10-08T21:21:30.604Z,8.90
2022-10-08T21:23:58.485Z,8.70
2022-10-08T21:26:28.698Z,8.80
2022-10-08T21:28:58.640Z,8.60
2022-10-08T21:31:26.934Z,8.70
2022-10-08T21:33:54.843Z,8.80
2022-10-08T21:36:26.978Z,8.80
2022-10-08T21:38:54.206Z,8.80
2022-10-08T21:41:23.394Z,8.80
2022-10-08T21:43:53.128Z,8.80
2022-10-08T21:46:23.607Z,8.70
2022-10-08T21:49:07.220Z,8.60
2022-10-08T21:51:34.837Z,8.60
2022-10-08T21:54:03.774Z,8.60
2022-10-08T21:56:32.662Z,8.60
2022-10-08T21:59:01.885Z,8.50
2022-10-08T22:01:35.284Z,8.40
2022-10-08T22:04:04.266Z,8.10
2022-10-08T22:06:34.025Z,8.10
2022-10-08T22:09:00.900Z,8.00
2022-10-08T22:11:27.909Z,7.80
2022-10-08T22:13:54.788Z,7.80
2022-10-08T22:16:22.990Z,7.70
2022-10-08T22:18:49.960Z,7.70
2022-10-08T22:21:19.405Z,7.60
2022-10-08T22:23:47.660Z,7.60
2022-10-08T22:26:20.639Z,7.70
2022-10-08T22:28:49.323Z,7.50
2022-10-08T22:31:18.040Z,7.30
2022-10-08T22:33:45.613Z,7.30
2022-10-08T22:36:20.677Z,7.10
2022-10-08T22:38:48.174Z,7.00
2022-10-08T22:41:19.120Z,6.90
2022-10-08T22:43:46.673Z,6.90
2022-10-08T22:46:17.234Z,6.70
2022-10-08T22:48:45.277Z,6.70
2022-10-08T22:51:15.729Z,6.60
2022-10-08T22:53:43.472Z,6.50
2022-10-08T22:56:14.167Z,6.50
2022-10-08T22:58:41.297Z,6.50
2022-10-08T23:01:11.310Z,6.50
2022-10-08T23:03:39.118Z,6.60
2022-10-08T23:06:13.544Z,6.80
2022-10-08T23:08:41.071Z,6.80
2022-10-08T23:11:08.191Z,6.80
2022-10-08T23:13:35.329Z,6.90
2022-10-08T23:16:07.880Z,6.80
2022-10-08T23:18:37.168Z,6.80
2022-10-08T23:21:06.601Z,6.90
2022-10-08T23:23:34.634Z,6.80
2022-10-08T23:26:03.878Z,6.70
2022-10-08T23:28:32.463Z,6.60
2022-10-08T23:31:11.789Z,6.60
2022-10-08T23:33:40.577Z,6.50
2022-10-08T23:36:09.299Z,6.50
2022-10-08T23:38:36.727Z,6.40
2022-10-08T23:41:06.076Z,6.30
2022-10-08T23:43:40.521Z,6.50
2022-10-08T23:46:10.224Z,6.40
2022-10-08T23:48:37.529Z,6.50
2022-10-08T23:51:05.644Z,6.60
2022-10-08T23:53:32.999Z,6.60
2022-10-08T23:56:00.294Z,6.60
2022-10-08T23:58:27.525Z,6.80
